• images/banner/banner1.jpg
  • images/banner/banner2.jpg

Team Member Login

Aviation Weather

[source: ADDS]
METAR
EGVN 200050Z 26004KT CAVOK 01/00 Q1007 BLU NOSIG =
TAF
TAF EGVN 192237Z 2000/2024 23007KT 9999 FEW030 PROB30 TEMPO 2000/2004 SCT007 BECMG 2004/2006 5000 -RA BR BKN005 PROB30 TEMPO 2006/2015 1500 -RASN BKN002 PROB30 2016/2019 8000 HZ BKN007 =